createdAt,value
2022-08-19T00:02:05.069Z,20.70
2022-08-19T00:04:37.775Z,19.20
2022-08-19T00:07:07.099Z,20.00
2022-08-19T00:09:34.585Z,19.38
2022-08-19T00:12:02.658Z,17.20
2022-08-19T00:14:33.888Z,15.02
2022-08-19T00:17:01.643Z,19.88
2022-08-19T00:19:28.686Z,19.33
2022-08-19T00:21:57.456Z,16.73
2022-08-19T00:24:25.006Z,18.70
2022-08-19T00:26:52.481Z,20.52
2022-08-19T00:29:22.187Z,13.15
2022-08-19T00:31:50.823Z,15.00
2022-08-19T00:34:17.959Z,18.05
2022-08-19T00:36:45.632Z,14.60
2022-08-19T00:39:14.021Z,14.93
2022-08-19T00:41:41.717Z,12.88
2022-08-19T00:44:13.877Z,9.75
2022-08-19T00:46:43.444Z,8.48
2022-08-19T00:49:29.146Z,7.90
2022-08-19T00:52:03.345Z,10.98
2022-08-19T00:54:32.698Z,9.00
2022-08-19T00:57:01.032Z,9.15
2022-08-19T01:00:00.477Z,5.35
2022-08-19T01:02:17.672Z,9.48
2022-08-19T01:04:44.697Z,7.43
2022-08-19T01:07:15.068Z,9.32
2022-08-19T01:09:44.732Z,8.13
2022-08-19T01:12:12.480Z,9.02
2022-08-19T01:14:41.709Z,10.45
2022-08-19T01:17:11.108Z,12.13
2022-08-19T01:19:43.806Z,8.25
2022-08-19T01:22:21.216Z,7.50
2022-08-19T01:24:52.951Z,11.10
2022-08-19T01:27:22.854Z,10.82
2022-08-19T01:29:51.825Z,9.20
2022-08-19T01:32:32.316Z,9.48
2022-08-19T01:35:03.305Z,10.73
2022-08-19T01:37:42.474Z,13.93
2022-08-19T01:40:10.519Z,11.70
2022-08-19T01:42:38.236Z,11.07
2022-08-19T01:45:07.558Z,10.75
2022-08-19T01:47:36.889Z,7.82
2022-08-19T01:50:06.787Z,9.05
2022-08-19T01:52:37.334Z,8.63
2022-08-19T01:55:06.591Z,10.85
2022-08-19T01:57:34.138Z,11.00
2022-08-19T02:00:02.017Z,7.57
2022-08-19T02:02:29.034Z,10.98
2022-08-19T02:04:56.248Z,16.80
2022-08-19T02:07:23.589Z,10.95
2022-08-19T02:09:50.691Z,6.97
2022-08-19T02:12:17.888Z,13.07
2022-08-19T02:14:44.971Z,10.93
2022-08-19T02:17:11.991Z,13.98
2022-08-19T02:19:39.350Z,18.55
2022-08-19T02:22:08.322Z,17.58
2022-08-19T02:24:35.365Z,16.48
2022-08-19T02:27:02.556Z,15.75
2022-08-19T02:29:29.713Z,23.92
2022-08-19T02:31:56.734Z,18.63
2022-08-19T02:34:24.081Z,25.60
2022-08-19T02:36:51.920Z,26.20
2022-08-19T02:39:20.249Z,17.98
2022-08-19T02:41:47.355Z,17.83
2022-08-19T02:44:29.304Z,19.60
2022-08-19T02:46:57.811Z,26.50
2022-08-19T02:49:24.993Z,19.63
2022-08-19T02:51:52.143Z,18.17
2022-08-19T02:54:19.734Z,21.92
2022-08-19T02:56:47.745Z,18.08
2022-08-19T02:59:14.895Z,13.02
2022-08-19T03:01:43.317Z,19.20
2022-08-19T03:04:13.279Z,13.68
2022-08-19T03:06:42.605Z,16.15
2022-08-19T03:09:10.939Z,17.00
2022-08-19T03:11:39.193Z,18.17
2022-08-19T03:14:08.459Z,19.05
2022-08-19T03:16:42.508Z,13.70
2022-08-19T03:19:09.698Z,13.57
2022-08-19T03:21:36.752Z,13.98
2022-08-19T03:24:07.228Z,13.55
2022-08-19T03:26:35.329Z,10.60
2022-08-19T03:29:06.249Z,13.65
2022-08-19T03:31:44.049Z,17.95
2022-08-19T03:34:22.279Z,11.93
2022-08-19T03:36:50.053Z,15.32
2022-08-19T03:39:18.137Z,14.48
2022-08-19T03:41:48.459Z,14.32
2022-08-19T03:44:19.689Z,13.13
2022-08-19T03:46:49.024Z,14.77
2022-08-19T03:49:18.155Z,13.80
2022-08-19T03:51:47.156Z,13.55
2022-08-19T03:54:16.428Z,13.57
2022-08-19T03:56:45.215Z,12.95
2022-08-19T03:59:15.713Z,15.45
2022-08-19T04:01:43.261Z,18.55
2022-08-19T04:04:10.756Z,12.93
2022-08-19T04:06:40.113Z,12.15
2022-08-19T04:09:10.291Z,15.35
2022-08-19T04:11:44.762Z,9.80
2022-08-19T04:14:18.568Z,11.50
2022-08-19T04:16:47.637Z,14.05
2022-08-19T04:19:16.344Z,12.80
2022-08-19T04:21:46.674Z,11.48
2022-08-19T04:24:14.511Z,13.30
2022-08-19T04:26:42.567Z,14.95
2022-08-19T04:29:16.153Z,16.92
2022-08-19T04:31:44.838Z,11.25
2022-08-19T04:34:13.548Z,13.00
2022-08-19T04:36:42.850Z,10.60
2022-08-19T04:39:13.901Z,21.45
2022-08-19T04:41:59.849Z,17.27
2022-08-19T04:44:27.527Z,13.90
2022-08-19T04:46:54.553Z,15.05
2022-08-19T04:49:24.195Z,19.48
2022-08-19T04:51:55.454Z,10.75
2022-08-19T04:54:38.022Z,14.57
2022-08-19T04:57:11.493Z,10.80
2022-08-19T04:59:40.518Z,17.52
2022-08-19T05:02:09.543Z,12.55
2022-08-19T05:04:40.491Z,15.38
2022-08-19T05:07:09.299Z,12.13
2022-08-19T05:09:55.739Z,10.13
2022-08-19T05:12:29.010Z,12.63
2022-08-19T05:15:00.667Z,10.65
2022-08-19T05:17:32.134Z,12.65
2022-08-19T05:20:20.728Z,13.43
2022-08-19T05:22:48.917Z,12.40
2022-08-19T05:25:21.711Z,10.43
2022-08-19T05:27:49.421Z,15.90
2022-08-19T05:30:17.531Z,13.15
2022-08-19T05:32:44.952Z,12.45
2022-08-19T05:35:12.994Z,19.30
2022-08-19T05:37:41.703Z,18.08
2022-08-19T05:40:10.485Z,14.73
2022-08-19T05:42:38.684Z,15.55
2022-08-19T05:45:06.263Z,14.88
2022-08-19T05:47:33.529Z,15.90
2022-08-19T05:50:05.098Z,17.13
2022-08-19T05:52:32.665Z,21.02
2022-08-19T05:55:00.689Z,22.65
2022-08-19T05:57:30.159Z,16.55
2022-08-19T05:59:59.097Z,20.80
2022-08-19T06:02:32.513Z,17.05
2022-08-19T06:04:59.810Z,18.88
2022-08-19T06:07:27.095Z,18.58
2022-08-19T06:10:00.075Z,12.45
2022-08-19T06:12:35.792Z,11.85
2022-08-19T06:15:15.031Z,16.17
2022-08-19T06:17:43.266Z,14.40
2022-08-19T06:20:14.625Z,12.40
2022-08-19T06:22:47.222Z,15.30
2022-08-19T06:25:16.418Z,13.52
2022-08-19T06:28:14.775Z,18.27
2022-08-19T06:30:30.913Z,12.30
2022-08-19T06:32:58.008Z,13.50
2022-08-19T06:35:25.190Z,17.63
2022-08-19T06:37:53.881Z,17.20
2022-08-19T06:40:21.176Z,16.55
2022-08-19T06:42:55.058Z,20.75
2022-08-19T06:45:24.609Z,17.55
2022-08-19T06:47:57.155Z,12.95
2022-08-19T06:50:25.571Z,11.55
2022-08-19T06:52:53.117Z,15.48
2022-08-19T06:55:20.467Z,19.85
2022-08-19T06:57:47.820Z,15.40
2022-08-19T07:00:15.346Z,14.25
2022-08-19T07:02:48.212Z,13.30
2022-08-19T07:05:23.360Z,12.90
2022-08-19T07:07:51.213Z,8.75
2022-08-19T07:10:18.952Z,11.05
2022-08-19T07:12:46.165Z,16.13
2022-08-19T07:15:14.157Z,15.27
2022-08-19T07:17:41.793Z,15.98
2022-08-19T07:20:11.083Z,9.23
2022-08-19T07:22:39.086Z,12.82
2022-08-19T07:25:08.926Z,13.55
2022-08-19T07:27:36.371Z,12.13
2022-08-19T07:30:04.672Z,12.77
2022-08-19T07:32:32.648Z,12.73
2022-08-19T07:35:01.863Z,14.32
2022-08-19T07:37:33.200Z,14.82
2022-08-19T07:40:02.196Z,11.15
2022-08-19T07:42:31.115Z,13.82
2022-08-19T07:44:59.700Z,14.40
2022-08-19T07:47:58.450Z,13.60
2022-08-19T07:50:14.733Z,11.45
2022-08-19T07:52:42.153Z,12.05
2022-08-19T07:55:42.086Z,12.05
2022-08-19T07:57:58.987Z,11.75
2022-08-19T08:00:26.538Z,9.15
2022-08-19T08:02:55.497Z,7.82
2022-08-19T08:05:45.359Z,12.63
2022-08-19T08:08:32.621Z,10.52
2022-08-19T08:11:00.863Z,9.82
2022-08-19T08:13:29.216Z,12.02
2022-08-19T08:15:58.005Z,17.88
2022-08-19T08:18:27.525Z,12.38
2022-08-19T08:20:56.306Z,15.43
2022-08-19T08:23:26.763Z,13.00
2022-08-19T08:25:57.597Z,15.40
2022-08-19T08:28:26.202Z,14.02
2022-08-19T08:30:56.983Z,14.23
2022-08-19T08:33:32.873Z,23.13
2022-08-19T08:36:09.002Z,13.90
2022-08-19T08:38:41.564Z,13.93
2022-08-19T08:41:48.013Z,16.33
2022-08-19T08:44:35.269Z,18.80
2022-08-19T08:47:11.598Z,16.38
2022-08-19T08:50:08.292Z,21.20
2022-08-19T08:52:43.623Z,24.85
2022-08-19T08:55:23.376Z,23.70
2022-08-19T08:57:50.389Z,17.63
2022-08-19T09:00:25.538Z,21.50
2022-08-19T09:02:52.604Z,15.60
2022-08-19T09:05:25.839Z,15.55
2022-08-19T09:08:02.542Z,13.00
2022-08-19T09:10:46.143Z,17.13
2022-08-19T09:13:37.889Z,14.70
2022-08-19T09:16:27.924Z,22.88
2022-08-19T09:19:00.177Z,23.05
2022-08-19T09:21:33.448Z,16.67
2022-08-19T09:24:03.485Z,19.73
2022-08-19T09:26:47.572Z,16.95
2022-08-19T09:29:22.464Z,23.77
2022-08-19T09:31:51.190Z,18.38
2022-08-19T09:34:22.194Z,16.45
2022-08-19T09:36:54.812Z,17.67
2022-08-19T09:39:22.257Z,14.13
2022-08-19T09:41:51.222Z,18.67
2022-08-19T09:44:19.179Z,15.82
2022-08-19T09:46:48.395Z,15.65
2022-08-19T09:49:18.600Z,17.38
2022-08-19T09:51:50.363Z,16.42
2022-08-19T09:54:23.614Z,15.60
2022-08-19T09:56:53.493Z,16.75
2022-08-19T09:59:20.816Z,18.33
2022-08-19T10:01:48.298Z,14.77
2022-08-19T10:04:20.598Z,15.52
2022-08-19T10:06:53.497Z,14.20
2022-08-19T10:09:33.508Z,13.43
2022-08-19T10:12:02.849Z,14.95
2022-08-19T10:14:30.379Z,18.02
2022-08-19T10:16:59.283Z,17.77
2022-08-19T10:19:26.664Z,16.98
2022-08-19T10:21:55.655Z,17.25
2022-08-19T10:24:29.211Z,12.57
2022-08-19T10:26:57.256Z,16.85
2022-08-19T10:29:32.810Z,13.68
2022-08-19T10:32:09.486Z,18.58
2022-08-19T10:34:48.028Z,15.95
2022-08-19T10:37:23.721Z,19.73
2022-08-19T10:39:56.636Z,24.90
2022-08-19T10:42:23.842Z,17.63
2022-08-19T10:44:51.879Z,17.98
2022-08-19T10:47:25.420Z,14.70
2022-08-19T10:50:15.394Z,16.10
2022-08-19T10:52:49.145Z,11.48
2022-08-19T10:55:43.871Z,14.65
2022-08-19T10:58:15.874Z,18.17
2022-08-19T11:00:47.085Z,17.48
2022-08-19T11:03:14.156Z,16.00
2022-08-19T11:05:42.576Z,12.15
2022-08-19T11:08:22.653Z,12.98
2022-08-19T11:10:51.562Z,14.63
2022-08-19T11:13:18.707Z,19.88
2022-08-19T11:15:48.684Z,16.48
2022-08-19T11:18:15.766Z,12.57
2022-08-19T11:20:42.814Z,16.60
2022-08-19T11:23:09.879Z,17.10
2022-08-19T11:25:40.109Z,16.05
2022-08-19T11:28:07.255Z,13.68
2022-08-19T11:30:34.856Z,11.93
2022-08-19T11:33:02.371Z,15.95
2022-08-19T11:35:29.581Z,14.38
2022-08-19T11:37:59.201Z,18.23
2022-08-19T11:40:26.276Z,12.73
2022-08-19T11:42:56.731Z,16.15
2022-08-19T11:45:29.362Z,14.80
2022-08-19T11:47:57.208Z,17.50
2022-08-19T11:50:25.606Z,18.63
2022-08-19T11:52:56.535Z,14.90
2022-08-19T11:55:24.809Z,15.07
2022-08-19T11:57:52.166Z,20.75
2022-08-19T12:00:19.734Z,15.68
2022-08-19T12:02:46.780Z,19.35
2022-08-19T12:05:13.977Z,13.82
2022-08-19T12:07:44.906Z,16.45
2022-08-19T12:10:12.081Z,13.75
2022-08-19T12:12:43.805Z,16.85
2022-08-19T12:15:15.559Z,16.13
2022-08-19T12:17:43.743Z,13.98
2022-08-19T12:20:14.768Z,13.82
2022-08-19T12:22:42.517Z,13.02
2022-08-19T12:25:11.808Z,11.00
2022-08-19T12:27:41.659Z,15.57
2022-08-19T12:30:13.271Z,15.18
2022-08-19T12:32:40.805Z,16.88
2022-08-19T12:35:10.343Z,14.23
2022-08-19T12:37:37.629Z,14.50
2022-08-19T12:40:05.348Z,14.75
2022-08-19T12:42:32.475Z,13.45
2022-08-19T12:44:59.482Z,13.73
2022-08-19T12:47:27.767Z,10.75
2022-08-19T12:49:56.137Z,15.45
2022-08-19T12:52:28.474Z,15.27
2022-08-19T12:54:57.761Z,15.68
2022-08-19T12:57:32.212Z,16.58
2022-08-19T13:00:04.677Z,17.33
2022-08-19T13:02:38.826Z,13.57
2022-08-19T13:05:09.574Z,14.80
2022-08-19T13:07:38.489Z,15.10
2022-08-19T13:10:08.483Z,15.07
2022-08-19T13:12:36.506Z,13.43
2022-08-19T13:15:10.586Z,18.60
2022-08-19T13:17:39.897Z,12.30
2022-08-19T13:20:11.591Z,15.88
2022-08-19T13:22:39.086Z,17.10
2022-08-19T13:25:08.265Z,15.48
2022-08-19T13:27:35.781Z,15.88
2022-08-19T13:30:23.679Z,11.82
2022-08-19T13:33:09.328Z,19.42
2022-08-19T13:35:36.482Z,13.10
2022-08-19T13:38:11.672Z,16.90
2022-08-19T13:40:41.330Z,15.50
2022-08-19T13:43:17.606Z,18.80
2022-08-19T13:45:51.473Z,16.30
2022-08-19T13:48:19.569Z,17.58
2022-08-19T13:50:48.569Z,12.57
2022-08-19T13:53:17.256Z,16.75
2022-08-19T13:55:45.587Z,15.60
2022-08-19T13:58:13.574Z,10.40
2022-08-19T14:00:44.848Z,15.60
2022-08-19T14:03:12.536Z,12.75
2022-08-19T14:05:39.873Z,15.32
2022-08-19T14:08:07.284Z,15.57
2022-08-19T14:10:34.677Z,17.88
2022-08-19T14:13:04.328Z,12.82
2022-08-19T14:15:32.305Z,13.32
2022-08-19T14:17:59.441Z,16.08
2022-08-19T14:20:26.988Z,15.88
2022-08-19T14:22:55.947Z,15.88
2022-08-19T14:25:26.121Z,18.98
2022-08-19T14:27:53.609Z,16.42
2022-08-19T14:30:28.159Z,13.23
2022-08-19T14:32:56.763Z,16.15
2022-08-19T14:35:24.916Z,20.35
2022-08-19T14:37:56.734Z,21.20
2022-08-19T14:40:27.238Z,15.05
2022-08-19T14:43:00.561Z,15.57
2022-08-19T14:47:56.023Z,14.05
2022-08-19T14:50:24.118Z,12.63
2022-08-19T14:52:52.976Z,19.08
2022-08-19T14:55:20.127Z,11.23
2022-08-19T14:57:47.293Z,15.27
2022-08-19T15:00:15.224Z,14.50
2022-08-19T15:02:45.386Z,12.45
2022-08-19T15:05:13.980Z,18.73
2022-08-19T15:07:42.133Z,15.02
2022-08-19T15:10:11.050Z,18.73
2022-08-19T15:12:41.398Z,15.85
2022-08-19T15:15:13.952Z,14.82
2022-08-19T15:17:46.509Z,15.73
2022-08-19T15:20:20.668Z,12.48
2022-08-19T15:22:48.292Z,17.45
2022-08-19T15:25:17.628Z,13.43
2022-08-19T15:27:44.806Z,16.08
2022-08-19T15:30:13.056Z,17.00
2022-08-19T15:32:40.446Z,16.50
2022-08-19T15:35:08.542Z,14.27
2022-08-19T15:37:37.144Z,16.33
2022-08-19T15:40:06.312Z,15.13
2022-08-19T15:42:34.401Z,17.13
2022-08-19T15:45:02.635Z,17.25
2022-08-19T15:47:35.034Z,17.85
2022-08-19T15:50:31.709Z,13.77
2022-08-19T15:53:01.998Z,12.95
2022-08-19T15:55:35.532Z,18.15
2022-08-19T15:58:28.661Z,19.58
2022-08-19T16:01:21.311Z,15.77
2022-08-19T16:04:14.909Z,13.40
2022-08-19T16:06:55.827Z,16.73
2022-08-19T16:09:29.252Z,13.45
2022-08-19T16:12:03.078Z,16.17
2022-08-19T16:14:33.493Z,17.70
2022-08-19T16:17:00.845Z,13.50
2022-08-19T16:19:27.982Z,16.15
2022-08-19T16:21:57.361Z,18.38
2022-08-19T16:24:27.650Z,18.15
2022-08-19T16:26:56.109Z,15.93
2022-08-19T16:29:33.623Z,14.20
2022-08-19T16:32:02.813Z,18.08
2022-08-19T16:34:31.500Z,16.23
2022-08-19T16:36:58.900Z,15.02
2022-08-19T16:39:25.985Z,13.68
2022-08-19T16:41:53.113Z,16.98
2022-08-19T16:44:21.240Z,18.65
2022-08-19T16:46:57.386Z,15.23
2022-08-19T16:49:52.265Z,15.73
2022-08-19T16:52:18.055Z,19.95
2022-08-19T16:54:45.302Z,15.60
2022-08-19T16:57:12.677Z,14.52
2022-08-19T16:59:43.699Z,16.20
2022-08-19T17:02:15.863Z,14.07
2022-08-19T17:04:42.932Z,19.30
2022-08-19T17:07:11.114Z,14.45
2022-08-19T17:09:38.455Z,15.68
2022-08-19T17:12:06.061Z,15.50
2022-08-19T17:14:33.072Z,15.95
2022-08-19T17:17:00.167Z,18.25
2022-08-19T17:19:28.563Z,16.38
2022-08-19T17:21:58.005Z,15.73
2022-08-19T17:24:25.023Z,19.55
2022-08-19T17:26:52.484Z,18.75
2022-08-19T17:29:19.599Z,17.95
2022-08-19T17:31:46.719Z,21.10
2022-08-19T17:34:13.793Z,19.88
2022-08-19T17:36:40.968Z,14.90
2022-08-19T17:39:08.216Z,18.17
2022-08-19T17:41:35.498Z,14.43
2022-08-19T17:44:03.312Z,16.83
2022-08-19T17:46:30.676Z,18.27
2022-08-19T17:48:58.557Z,15.45
2022-08-19T17:51:40.555Z,16.67
2022-08-19T17:56:38.428Z,17.02
2022-08-19T17:59:09.105Z,15.82
2022-08-19T18:01:52.292Z,23.55
2022-08-19T18:04:22.256Z,19.58
2022-08-19T18:06:53.805Z,17.88
2022-08-19T18:09:40.391Z,18.48
2022-08-19T18:12:11.199Z,20.98
2022-08-19T18:14:39.552Z,19.20
2022-08-19T18:17:10.285Z,23.10
2022-08-19T18:19:43.863Z,20.50
2022-08-19T18:22:24.451Z,19.60
2022-08-19T18:24:52.035Z,20.88
2022-08-19T18:27:19.210Z,17.40
2022-08-19T18:29:46.443Z,17.08
2022-08-19T18:32:13.754Z,15.73
2022-08-19T18:34:43.320Z,19.48
2022-08-19T18:37:11.370Z,17.30
2022-08-19T18:39:57.190Z,13.00
2022-08-19T18:42:43.158Z,15.52
2022-08-19T18:45:29.292Z,17.48
2022-08-19T18:48:27.059Z,19.80
2022-08-19T18:50:59.997Z,22.48
2022-08-19T18:53:32.860Z,21.90
2022-08-19T18:56:00.172Z,16.38
2022-08-19T18:58:36.487Z,23.30
2022-08-19T19:01:21.200Z,17.48
2022-08-19T19:03:53.108Z,18.40
2022-08-19T19:06:28.695Z,19.83
2022-08-19T19:08:56.799Z,23.90
2022-08-19T19:11:30.266Z,16.77
2022-08-19T19:13:57.810Z,19.73
2022-08-19T19:16:24.913Z,22.02
2022-08-19T19:18:53.062Z,16.20
2022-08-19T19:21:24.770Z,18.00
2022-08-19T19:23:54.834Z,17.23
2022-08-19T19:26:22.513Z,23.08
2022-08-19T19:28:51.690Z,22.00
2022-08-19T19:31:27.249Z,20.80
2022-08-19T19:33:55.936Z,19.02
2022-08-19T19:36:23.831Z,18.58
2022-08-19T19:38:51.405Z,22.35
2022-08-19T19:41:24.845Z,22.63
2022-08-19T19:44:10.055Z,22.92
2022-08-19T19:46:45.209Z,16.83
2022-08-19T19:49:13.305Z,23.55
2022-08-19T19:51:41.284Z,20.00
2022-08-19T19:54:13.995Z,27.08
2022-08-19T19:56:45.250Z,17.73
2022-08-19T19:59:12.637Z,23.15
2022-08-19T20:01:47.129Z,22.25
2022-08-19T20:04:15.151Z,24.65
2022-08-19T20:06:42.755Z,24.02
2022-08-19T20:09:17.565Z,19.73
2022-08-19T20:11:53.420Z,22.38
2022-08-19T20:14:28.031Z,17.17
2022-08-19T20:16:56.722Z,16.60
2022-08-19T20:19:27.799Z,22.17
2022-08-19T20:21:56.152Z,21.70
2022-08-19T20:24:26.915Z,18.63
2022-08-19T20:26:54.207Z,20.75
2022-08-19T20:29:39.184Z,17.63
2022-08-19T20:32:08.139Z,23.65
2022-08-19T20:34:35.280Z,24.25
2022-08-19T20:37:02.340Z,16.80
2022-08-19T20:39:29.469Z,24.83
2022-08-19T20:41:56.735Z,19.88
2022-08-19T20:44:25.712Z,23.35
2022-08-19T20:46:55.556Z,23.83
2022-08-19T20:49:27.412Z,20.30
2022-08-19T20:51:56.253Z,21.25
2022-08-19T20:54:24.407Z,28.50
2022-08-19T20:56:51.992Z,16.70
2022-08-19T20:59:20.371Z,22.63
2022-08-19T21:01:48.151Z,19.23
2022-08-19T21:04:15.192Z,21.75
2022-08-19T21:06:45.230Z,22.48
2022-08-19T21:09:13.901Z,22.90
2022-08-19T21:11:41.790Z,24.13
2022-08-19T21:14:08.935Z,28.27
2022-08-19T21:16:36.323Z,21.45
2022-08-19T21:19:03.706Z,22.48
2022-08-19T21:21:31.316Z,21.92
2022-08-19T21:23:58.419Z,29.40
2022-08-19T21:26:25.455Z,26.73
2022-08-19T21:28:52.479Z,20.25
2022-08-19T21:31:19.942Z,14.80
2022-08-19T21:33:47.121Z,18.80
2022-08-19T21:36:14.167Z,23.65
2022-08-19T21:38:41.633Z,24.40
2022-08-19T21:41:08.761Z,19.02
2022-08-19T21:43:37.207Z,28.50
2022-08-19T21:46:04.705Z,27.88
2022-08-19T21:48:31.977Z,24.52
2022-08-19T21:50:59.016Z,23.42
2022-08-19T21:53:34.136Z,23.65
2022-08-19T21:56:02.913Z,26.65
2022-08-19T21:58:30.697Z,31.15
2022-08-19T22:01:05.969Z,27.55
2022-08-19T22:03:37.258Z,20.08
2022-08-19T22:06:05.126Z,19.58
2022-08-19T22:08:32.262Z,24.20
2022-08-19T22:11:02.039Z,31.92
2022-08-19T22:13:30.503Z,28.45
2022-08-19T22:15:57.527Z,24.17
2022-08-19T22:18:25.021Z,15.35
2022-08-19T22:20:52.090Z,23.00
2022-08-19T22:23:19.306Z,18.00
2022-08-19T22:25:47.569Z,19.70
2022-08-19T22:28:19.114Z,29.67
2022-08-19T22:30:56.494Z,20.67
2022-08-19T22:33:26.007Z,16.08
2022-08-19T22:35:53.504Z,21.95
2022-08-19T22:38:20.575Z,23.90
2022-08-19T22:40:49.575Z,17.75
2022-08-19T22:43:20.117Z,16.10
2022-08-19T22:45:49.300Z,15.82
2022-08-19T22:48:20.082Z,16.38
2022-08-19T22:51:08.881Z,13.13
2022-08-19T22:53:38.560Z,18.63
2022-08-19T22:56:14.614Z,16.98
2022-08-19T22:58:43.382Z,11.90
2022-08-19T23:01:11.757Z,12.88
2022-08-19T23:03:51.899Z,13.13
2022-08-19T23:06:19.036Z,17.25
2022-08-19T23:08:46.064Z,15.52
2022-08-19T23:11:13.182Z,18.90
2022-08-19T23:13:42.524Z,17.25
2022-08-19T23:16:10.080Z,23.17
2022-08-19T23:18:37.087Z,15.55
2022-08-19T23:21:09.716Z,18.00
2022-08-19T23:23:37.969Z,20.92
2022-08-19T23:26:06.635Z,36.38
2022-08-19T23:28:57.423Z,27.10
2022-08-19T23:31:26.602Z,28.88
2022-08-19T23:33:53.718Z,26.65
2022-08-19T23:36:23.112Z,22.02
2022-08-19T23:38:52.571Z,25.45
2022-08-19T23:41:22.514Z,24.15
2022-08-19T23:43:50.844Z,28.77
2022-08-19T23:46:28.067Z,27.70
2022-08-19T23:51:23.187Z,28.23
2022-08-19T23:53:50.498Z,25.15
2022-08-19T23:56:17.515Z,23.05
2022-08-19T23:58:44.762Z,22.25
